sensor_id;sensor_type;location;lat;lon;timestamp;pressure;altitude;pressure_sealevel;temperature;humidity
37878;BME280;23715;53.652;8.516;2023-06-10T00:01:35;102002.62;;;17.01;100.00
37878;BME280;23715;53.652;8.516;2023-06-10T00:06:35;102005.89;;;16.75;100.00
37878;BME280;23715;53.652;8.516;2023-06-10T00:11:41;102009.57;;;16.89;100.00
37878;BME280;23715;53.652;8.516;2023-06-10T00:16:38;102003.77;;;16.88;100.00
37878;BME280;23715;53.652;8.516;2023-06-10T00:21:38;102007.25;;;16.75;100.00
37878;BME280;23715;53.652;8.516;2023-06-10T00:26:44;102022.13;;;16.51;100.00
37878;BME280;23715;53.652;8.516;2023-06-10T00:31:45;102012.93;;;16.68;100.00
37878;BME280;23715;53.652;8.516;2023-06-10T00:36:45;102017.14;;;16.66;100.00
37878;BME280;23715;53.652;8.516;2023-06-10T00:41:45;102019.07;;;16.70;100.00
37878;BME280;23715;53.652;8.516;2023-06-10T00:46:46;102018.20;;;16.59;100.00
37878;BME280;23715;53.652;8.516;2023-06-10T00:51:55;102012.93;;;16.68;100.00
37878;BME280;23715;53.652;8.516;2023-06-10T00:56:55;102010.05;;;16.59;100.00
37878;BME280;23715;53.652;8.516;2023-06-10T01:01:59;102008.69;;;16.50;100.00
37878;BME280;23715;53.652;8.516;2023-06-10T01:07:25;102009.98;;;16.55;100.00
37878;BME280;23715;53.652;8.516;2023-06-10T01:12:41;102014.97;;;16.50;100.00
37878;BME280;23715;53.652;8.516;2023-06-10T01:17:57;102018.63;;;16.35;100.00
37878;BME280;23715;53.652;8.516;2023-06-10T01:23:00;102021.62;;;16.52;100.00
37878;BME280;23715;53.652;8.516;2023-06-10T01:28:17;102025.91;;;16.45;100.00
37878;BME280;23715;53.652;8.516;2023-06-10T01:33:18;102021.15;;;16.52;100.00
37878;BME280;23715;53.652;8.516;2023-06-10T01:38:32;102017.55;;;16.42;100.00
37878;BME280;23715;53.652;8.516;2023-06-10T01:43:26;102024.97;;;16.20;100.00
37878;BME280;23715;53.652;8.516;2023-06-10T01:48:27;102025.59;;;15.93;100.00
37878;BME280;23715;53.652;8.516;2023-06-10T01:53:27;102018.70;;;15.79;100.00
37878;BME280;23715;53.652;8.516;2023-06-10T01:58:27;102021.95;;;15.89;100.00
37878;BME280;23715;53.652;8.516;2023-06-10T02:03:27;102032.42;;;15.88;100.00
37878;BME280;23715;53.652;8.516;2023-06-10T02:08:29;102044.58;;;15.93;100.00
37878;BME280;23715;53.652;8.516;2023-06-10T02:13:31;102050.94;;;16.13;100.00
37878;BME280;23715;53.652;8.516;2023-06-10T02:18:35;102050.48;;;16.08;100.00
37878;BME280;23715;53.652;8.516;2023-06-10T02:23:36;102055.38;;;15.99;100.00
37878;BME280;23715;53.652;8.516;2023-06-10T02:28:43;102057.77;;;15.83;100.00
37878;BME280;23715;53.652;8.516;2023-06-10T02:33:39;102062.02;;;15.75;100.00
37878;BME280;23715;53.652;8.516;2023-06-10T02:38:40;102069.39;;;15.79;100.00
37878;BME280;23715;53.652;8.516;2023-06-10T02:43:42;102066.31;;;15.57;100.00
37878;BME280;23715;53.652;8.516;2023-06-10T02:48:45;102075.38;;;15.52;100.00
37878;BME280;23715;53.652;8.516;2023-06-10T02:53:47;102077.23;;;15.46;100.00
37878;BME280;23715;53.652;8.516;2023-06-10T02:58:51;102079.70;;;15.49;100.00
37878;BME280;23715;53.652;8.516;2023-06-10T03:03:52;102086.94;;;15.54;100.00
37878;BME280;23715;53.652;8.516;2023-06-10T03:08:52;102082.31;;;15.45;100.00
37878;BME280;23715;53.652;8.516;2023-06-10T03:13:54;102088.17;;;15.50;100.00
37878;BME280;23715;53.652;8.516;2023-06-10T03:18:58;102082.95;;;15.42;100.00
37878;BME280;23715;53.652;8.516;2023-06-10T03:24:00;102084.69;;;15.38;100.00
37878;BME280;23715;53.652;8.516;2023-06-10T03:29:02;102074.92;;;15.26;100.00
37878;BME280;23715;53.652;8.516;2023-06-10T03:34:04;102084.69;;;15.17;100.00
37878;BME280;23715;53.652;8.516;2023-06-10T03:39:05;102084.03;;;15.25;100.00
37878;BME280;23715;53.652;8.516;2023-06-10T03:44:12;102083.23;;;15.34;100.00
37878;BME280;23715;53.652;8.516;2023-06-10T03:49:09;102086.48;;;15.64;100.00
37878;BME280;23715;53.652;8.516;2023-06-10T03:54:11;102084.75;;;15.63;100.00
37878;BME280;23715;53.652;8.516;2023-06-10T03:59:13;102089.91;;;15.66;100.00
37878;BME280;23715;53.652;8.516;2023-06-10T04:04:14;102089.56;;;15.65;100.00
37878;BME280;23715;53.652;8.516;2023-06-10T04:09:18;102098.26;;;15.74;100.00
37878;BME280;23715;53.652;8.516;2023-06-10T04:14:24;102098.55;;;15.87;100.00
37878;BME280;23715;53.652;8.516;2023-06-10T04:19:22;102095.31;;;16.03;100.00
37878;BME280;23715;53.652;8.516;2023-06-10T04:24:23;102088.93;;;16.13;100.00
37878;BME280;23715;53.652;8.516;2023-06-10T04:29:27;102088.90;;;16.29;100.00
37878;BME280;23715;53.652;8.516;2023-06-10T04:34:28;102088.13;;;16.32;100.00
37878;BME280;23715;53.652;8.516;2023-06-10T04:39:29;102096.14;;;16.34;100.00
37878;BME280;23715;53.652;8.516;2023-06-10T04:44:30;102093.77;;;16.35;100.00
37878;BME280;23715;53.652;8.516;2023-06-10T04:49:30;102093.00;;;16.48;100.00
37878;BME280;23715;53.652;8.516;2023-06-10T04:54:31;102091.70;;;16.68;100.00
37878;BME280;23715;53.652;8.516;2023-06-10T04:59:40;102087.03;;;16.54;100.00
37878;BME280;23715;53.652;8.516;2023-06-10T05:04:35;102084.09;;;16.62;100.00
37878;BME280;23715;53.652;8.516;2023-06-10T05:09:36;102082.16;;;16.83;100.00
37878;BME280;23715;53.652;8.516;2023-06-10T05:14:36;102073.86;;;16.94;100.00
37878;BME280;23715;53.652;8.516;2023-06-10T05:19:36;102064.77;;;17.09;100.00
37878;BME280;23715;53.652;8.516;2023-06-10T05:24:36;102057.89;;;17.15;100.00
37878;BME280;23715;53.652;8.516;2023-06-10T05:29:38;102056.87;;;17.16;100.00
37878;BME280;23715;53.652;8.516;2023-06-10T05:34:39;102048.38;;;17.15;100.00
37878;BME280;23715;53.652;8.516;2023-06-10T05:39:38;102057.93;;;17.29;100.00
37878;BME280;23715;53.652;8.516;2023-06-10T05:44:40;102058.50;;;17.32;100.00
37878;BME280;23715;53.652;8.516;2023-06-10T05:49:49;102046.71;;;17.18;100.00
37878;BME280;23715;53.652;8.516;2023-06-10T05:54:50;102051.30;;;17.17;100.00
37878;BME280;23715;53.652;8.516;2023-06-10T05:59:55;102051.39;;;17.35;100.00
37878;BME280;23715;53.652;8.516;2023-06-10T06:04:57;102054.30;;;17.48;100.00
37878;BME280;23715;53.652;8.516;2023-06-10T06:10:02;102044.13;;;17.50;100.00
37878;BME280;23715;53.652;8.516;2023-06-10T06:15:02;102042.73;;;17.60;100.00
37878;BME280;23715;53.652;8.516;2023-06-10T06:20:05;102042.50;;;17.67;100.00
37878;BME280;23715;53.652;8.516;2023-06-10T06:25:14;102044.42;;;17.70;100.00
37878;BME280;23715;53.652;8.516;2023-06-10T06:30:12;102048.37;;;17.62;100.00
37878;BME280;23715;53.652;8.516;2023-06-10T06:35:20;102051.16;;;17.90;100.00
37878;BME280;23715;53.652;8.516;2023-06-10T06:40:25;102028.28;;;17.73;100.00
37878;BME280;23715;53.652;8.516;2023-06-10T06:45:47;102028.28;;;17.73;100.00
37878;BME280;23715;53.652;8.516;2023-06-10T06:50:37;102047.05;;;17.76;100.00
37878;BME280;23715;53.652;8.516;2023-06-10T06:55:42;102045.34;;;17.89;100.00
37878;BME280;23715;53.652;8.516;2023-06-10T07:00:39;102048.48;;;17.94;100.00
37878;BME280;23715;53.652;8.516;2023-06-10T07:05:41;102048.94;;;18.03;100.00
37878;BME280;23715;53.652;8.516;2023-06-10T07:10:48;102048.83;;;18.09;100.00
37878;BME280;23715;53.652;8.516;2023-06-10T07:15:45;102043.53;;;18.07;100.00
37878;BME280;23715;53.652;8.516;2023-06-10T07:20:56;102037.27;;;18.25;100.00
37878;BME280;23715;53.652;8.516;2023-06-10T07:25:52;102029.91;;;18.35;100.00
37878;BME280;23715;53.652;8.516;2023-06-10T07:30:58;102029.91;;;18.71;100.00
37878;BME280;23715;53.652;8.516;2023-06-10T07:35:54;102021.86;;;18.65;100.00
37878;BME280;23715;53.652;8.516;2023-06-10T07:40:54;102020.25;;;19.17;100.00
37878;BME280;23715;53.652;8.516;2023-06-10T07:45:55;102021.62;;;19.47;100.00
37878;BME280;23715;53.652;8.516;2023-06-10T07:50:57;102018.06;;;19.46;100.00
37878;BME280;23715;53.652;8.516;2023-06-10T07:55:57;102024.86;;;19.77;100.00
37878;BME280;23715;53.652;8.516;2023-06-10T08:01:04;102025.08;;;19.83;100.00
37878;BME280;23715;53.652;8.516;2023-06-10T08:06:08;102028.34;;;19.91;100.00
37878;BME280;23715;53.652;8.516;2023-06-10T08:11:19;102029.03;;;19.93;100.00
37878;BME280;23715;53.652;8.516;2023-06-10T08:16:17;102028.56;;;19.67;100.00
37878;BME280;23715;53.652;8.516;2023-06-10T08:21:17;102028.30;;;19.48;100.00
37878;BME280;23715;53.652;8.516;2023-06-10T08:26:21;102030.78;;;19.38;100.00
37878;BME280;23715;53.652;8.516;2023-06-10T08:31:21;102036.63;;;19.47;100.00
37878;BME280;23715;53.652;8.516;2023-06-10T08:36:31;102028.73;;;20.04;100.00
37878;BME280;23715;53.652;8.516;2023-06-10T08:41:30;102023.34;;;20.25;100.00
37878;BME280;23715;53.652;8.516;2023-06-10T08:46:34;102017.09;;;20.61;100.00
37878;BME280;23715;53.652;8.516;2023-06-10T08:51:50;102008.73;;;20.71;100.00
37878;BME280;23715;53.652;8.516;2023-06-10T08:56:55;102003.26;;;20.92;100.00
37878;BME280;23715;53.652;8.516;2023-06-10T09:02:00;102009.41;;;21.06;100.00
37878;BME280;23715;53.652;8.516;2023-06-10T09:07:08;102005.98;;;21.00;100.00
37878;BME280;23715;53.652;8.516;2023-06-10T09:12:05;102006.45;;;21.24;100.00
37878;BME280;23715;53.652;8.516;2023-06-10T09:17:08;102002.48;;;21.43;100.00
37878;BME280;23715;53.652;8.516;2023-06-10T09:22:10;101989.09;;;21.69;100.00
37878;BME280;23715;53.652;8.516;2023-06-10T09:27:13;101993.50;;;21.74;100.00
37878;BME280;23715;53.652;8.516;2023-06-10T09:32:19;101992.59;;;21.90;100.00
37878;BME280;23715;53.652;8.516;2023-06-10T09:37:29;101984.44;;;21.73;100.00
37878;BME280;23715;53.652;8.516;2023-06-10T09:42:26;101977.41;;;22.06;100.00
37878;BME280;23715;53.652;8.516;2023-06-10T09:47:31;101978.95;;;22.09;100.00
37878;BME280;23715;53.652;8.516;2023-06-10T09:52:33;101975.77;;;22.28;100.00
37878;BME280;23715;53.652;8.516;2023-06-10T09:57:33;101973.53;;;21.96;100.00
37878;BME280;23715;53.652;8.516;2023-06-10T10:02:50;101979.13;;;22.07;100.00
37878;BME280;23715;53.652;8.516;2023-06-10T10:07:49;101972.71;;;22.27;100.00
37878;BME280;23715;53.652;8.516;2023-06-10T10:12:56;101975.00;;;22.38;100.00
37878;BME280;23715;53.652;8.516;2023-06-10T10:23:05;101976.78;;;22.54;100.00
37878;BME280;23715;53.652;8.516;2023-06-10T10:28:24;101976.45;;;22.72;100.00
37878;BME280;23715;53.652;8.516;2023-06-10T10:33:41;101977.23;;;23.19;100.00
37878;BME280;23715;53.652;8.516;2023-06-10T10:38:31;101970.42;;;23.15;100.00
37878;BME280;23715;53.652;8.516;2023-06-10T10:43:34;101971.08;;;23.17;100.00
37878;BME280;23715;53.652;8.516;2023-06-10T10:48:37;101961.61;;;23.00;100.00
37878;BME280;23715;53.652;8.516;2023-06-10T10:53:39;101954.62;;;23.17;100.00
37878;BME280;23715;53.652;8.516;2023-06-10T10:58:41;101957.02;;;23.31;100.00
37878;BME280;23715;53.652;8.516;2023-06-10T11:03:46;101958.29;;;23.39;100.00
37878;BME280;23715;53.652;8.516;2023-06-10T11:08:56;101948.89;;;23.52;100.00
37878;BME280;23715;53.652;8.516;2023-06-10T11:19:31;101946.47;;;24.05;100.00
37878;BME280;23715;53.652;8.516;2023-06-10T11:24:30;101944.20;;;24.19;100.00
37878;BME280;23715;53.652;8.516;2023-06-10T11:29:36;101937.51;;;24.07;100.00
37878;BME280;23715;53.652;8.516;2023-06-10T11:34:42;101935.50;;;24.15;100.00
37878;BME280;23715;53.652;8.516;2023-06-10T11:39:49;101933.20;;;24.41;100.00
37878;BME280;23715;53.652;8.516;2023-06-10T11:44:54;101941.41;;;24.55;100.00
37878;BME280;23715;53.652;8.516;2023-06-10T11:49:57;101923.91;;;24.63;100.00
37878;BME280;23715;53.652;8.516;2023-06-10T11:55:02;101923.28;;;24.79;100.00
37878;BME280;23715;53.652;8.516;2023-06-10T12:00:07;101916.75;;;24.97;100.00
37878;BME280;23715;53.652;8.516;2023-06-10T12:05:32;101909.17;;;25.06;100.00
37878;BME280;23715;53.652;8.516;2023-06-10T12:10:25;101912.44;;;25.33;100.00
37878;BME280;23715;53.652;8.516;2023-06-10T12:15:25;101907.97;;;25.32;100.00
37878;BME280;23715;53.652;8.516;2023-06-10T12:20:30;101910.28;;;25.46;100.00
37878;BME280;23715;53.652;8.516;2023-06-10T12:25:35;101913.53;;;25.70;100.00
37878;BME280;23715;53.652;8.516;2023-06-10T12:30:39;101905.47;;;25.68;100.00
37878;BME280;23715;53.652;8.516;2023-06-10T12:35:55;101893.84;;;25.73;100.00
37878;BME280;23715;53.652;8.516;2023-06-10T12:40:47;101894.11;;;25.61;100.00
37878;BME280;23715;53.652;8.516;2023-06-10T12:45:48;101888.14;;;25.81;100.00
37878;BME280;23715;53.652;8.516;2023-06-10T12:50:58;101879.62;;;25.94;100.00
37878;BME280;23715;53.652;8.516;2023-06-10T12:56:06;101882.42;;;26.20;100.00
37878;BME280;23715;53.652;8.516;2023-06-10T13:01:02;101881.78;;;26.18;100.00
37878;BME280;23715;53.652;8.516;2023-06-10T13:06:05;101884.66;;;26.27;100.00
37878;BME280;23715;53.652;8.516;2023-06-10T13:11:07;101878.59;;;26.48;100.00
37878;BME280;23715;53.652;8.516;2023-06-10T13:16:09;101872.77;;;26.47;100.00
37878;BME280;23715;53.652;8.516;2023-06-10T13:21:11;101867.68;;;26.51;100.00
37878;BME280;23715;53.652;8.516;2023-06-10T13:26:14;101869.36;;;26.52;100.00
37878;BME280;23715;53.652;8.516;2023-06-10T13:31:19;101861.97;;;26.65;100.00
37878;BME280;23715;53.652;8.516;2023-06-10T13:36:27;101861.20;;;26.81;100.00
37878;BME280;23715;53.652;8.516;2023-06-10T13:41:30;101845.31;;;26.99;100.00
37878;BME280;23715;53.652;8.516;2023-06-10T13:46:32;101841.88;;;27.17;95.35
37878;BME280;23715;53.652;8.516;2023-06-10T13:51:51;101832.84;;;27.12;96.85
37878;BME280;23715;53.652;8.516;2023-06-10T13:56:43;101838.78;;;27.16;94.30
37878;BME280;23715;53.652;8.516;2023-06-10T14:01:46;101827.48;;;27.24;100.00
37878;BME280;23715;53.652;8.516;2023-06-10T14:06:48;101822.88;;;27.40;100.00
37878;BME280;23715;53.652;8.516;2023-06-10T14:11:51;101821.20;;;27.55;100.00
37878;BME280;23715;53.652;8.516;2023-06-10T14:16:55;101815.42;;;27.79;100.00
37878;BME280;23715;53.652;8.516;2023-06-10T14:21:56;101811.38;;;27.66;99.93
37878;BME280;23715;53.652;8.516;2023-06-10T14:27:01;101812.09;;;27.64;100.00
37878;BME280;23715;53.652;8.516;2023-06-10T14:32:00;101806.14;;;27.67;100.00
37878;BME280;23715;53.652;8.516;2023-06-10T14:37:02;101805.09;;;27.77;100.00
37878;BME280;23715;53.652;8.516;2023-06-10T14:42:07;101804.59;;;27.94;100.00
37878;BME280;23715;53.652;8.516;2023-06-10T14:47:06;101803.94;;;27.98;100.00
37878;BME280;23715;53.652;8.516;2023-06-10T14:52:09;101801.17;;;28.08;100.00
37878;BME280;23715;53.652;8.516;2023-06-10T14:57:09;101798.66;;;28.06;100.00
37878;BME280;23715;53.652;8.516;2023-06-10T15:02:13;101787.75;;;28.11;100.00
37878;BME280;23715;53.652;8.516;2023-06-10T15:07:13;101796.19;;;28.07;100.00
37878;BME280;23715;53.652;8.516;2023-06-10T15:12:18;101788.94;;;28.22;100.00
37878;BME280;23715;53.652;8.516;2023-06-10T15:17:21;101783.34;;;28.19;100.00
37878;BME280;23715;53.652;8.516;2023-06-10T15:22:25;101781.60;;;28.09;100.00
37878;BME280;23715;53.652;8.516;2023-06-10T15:27:24;101782.40;;;28.16;100.00
37878;BME280;23715;53.652;8.516;2023-06-10T15:32:25;101786.34;;;28.02;100.00
37878;BME280;23715;53.652;8.516;2023-06-10T15:37:25;101776.89;;;28.26;100.00
37878;BME280;23715;53.652;8.516;2023-06-10T15:42:27;101775.30;;;28.36;100.00
37878;BME280;23715;53.652;8.516;2023-06-10T15:47:27;101763.14;;;28.53;100.00
37878;BME280;23715;53.652;8.516;2023-06-10T15:52:27;101763.14;;;28.53;100.00
37878;BME280;23715;53.652;8.516;2023-06-10T15:57:28;101761.55;;;28.48;100.00
37878;BME280;23715;53.652;8.516;2023-06-10T16:02:28;101755.80;;;28.59;100.00
37878;BME280;23715;53.652;8.516;2023-06-10T16:07:37;101766.42;;;28.62;100.00
37878;BME280;23715;53.652;8.516;2023-06-10T16:12:35;101753.30;;;28.67;100.00
37878;BME280;23715;53.652;8.516;2023-06-10T16:17:35;101753.30;;;28.67;100.00
37878;BME280;23715;53.652;8.516;2023-06-10T16:22:37;101749.44;;;28.68;100.00
37878;BME280;23715;53.652;8.516;2023-06-10T16:27:37;101754.68;;;28.57;100.00
37878;BME280;23715;53.652;8.516;2023-06-10T16:32:39;101748.83;;;28.66;100.00
37878;BME280;23715;53.652;8.516;2023-06-10T16:37:46;101745.15;;;28.53;100.00
37878;BME280;23715;53.652;8.516;2023-06-10T16:42:54;101746.10;;;28.40;100.00
37878;BME280;23715;53.652;8.516;2023-06-10T16:47:56;101740.03;;;28.50;100.00
37878;BME280;23715;53.652;8.516;2023-06-10T16:52:58;101737.41;;;28.37;100.00
37878;BME280;23715;53.652;8.516;2023-06-10T16:57:59;101739.56;;;28.35;100.00
37878;BME280;23715;53.652;8.516;2023-06-10T17:02:59;101740.77;;;28.20;100.00
37878;BME280;23715;53.652;8.516;2023-06-10T17:08:03;101737.52;;;28.05;100.00
37878;BME280;23715;53.652;8.516;2023-06-10T17:13:04;101737.52;;;28.05;100.00
37878;BME280;23715;53.652;8.516;2023-06-10T17:18:10;101731.20;;;28.02;100.00
37878;BME280;23715;53.652;8.516;2023-06-10T17:23:10;101731.20;;;27.82;100.00
37878;BME280;23715;53.652;8.516;2023-06-10T17:28:11;101752.15;;;27.80;100.00
37878;BME280;23715;53.652;8.516;2023-06-10T17:33:15;101752.98;;;27.72;100.00
37878;BME280;23715;53.652;8.516;2023-06-10T17:38:20;101758.98;;;27.78;100.00
37878;BME280;23715;53.652;8.516;2023-06-10T17:43:21;101765.27;;;27.60;100.00
37878;BME280;23715;53.652;8.516;2023-06-10T17:48:25;101763.99;;;27.62;100.00
37878;BME280;23715;53.652;8.516;2023-06-10T17:53:26;101764.48;;;27.53;100.00
37878;BME280;23715;53.652;8.516;2023-06-10T17:58:26;101775.31;;;27.32;100.00
37878;BME280;23715;53.652;8.516;2023-06-10T18:03:26;101778.95;;;27.32;100.00
37878;BME280;23715;53.652;8.516;2023-06-10T18:08:27;101784.97;;;27.38;100.00
37878;BME280;23715;53.652;8.516;2023-06-10T18:13:27;101785.31;;;27.49;100.00
37878;BME280;23715;53.652;8.516;2023-06-10T18:18:28;101791.46;;;27.51;100.00
37878;BME280;23715;53.652;8.516;2023-06-10T18:23:32;101788.01;;;27.94;100.00
37878;BME280;23715;53.652;8.516;2023-06-10T18:28:33;101781.45;;;29.82;100.00
37878;BME280;23715;53.652;8.516;2023-06-10T18:33:36;101783.25;;;29.97;100.00
37878;BME280;23715;53.652;8.516;2023-06-10T18:38:41;101791.52;;;29.74;100.00
37878;BME280;23715;53.652;8.516;2023-06-10T18:43:46;101796.81;;;30.08;100.00
37878;BME280;23715;53.652;8.516;2023-06-10T18:48:47;101791.95;;;30.25;100.00
37878;BME280;23715;53.652;8.516;2023-06-10T18:53:52;101799.84;;;29.86;100.00
37878;BME280;23715;53.652;8.516;2023-06-10T18:59:03;101810.92;;;29.74;100.00
37878;BME280;23715;53.652;8.516;2023-06-10T19:04:00;101819.83;;;29.46;100.00
37878;BME280;23715;53.652;8.516;2023-06-10T19:09:01;101820.64;;;28.97;100.00
37878;BME280;23715;53.652;8.516;2023-06-10T19:14:02;101835.47;;;27.23;100.00
37878;BME280;23715;53.652;8.516;2023-06-10T19:19:06;101837.76;;;26.54;100.00
37878;BME280;23715;53.652;8.516;2023-06-10T19:24:13;101842.30;;;26.04;100.00
37878;BME280;23715;53.652;8.516;2023-06-10T19:29:11;101847.19;;;25.65;100.00
37878;BME280;23715;53.652;8.516;2023-06-10T19:34:13;101852.06;;;25.14;100.00
37878;BME280;23715;53.652;8.516;2023-06-10T19:39:26;101853.39;;;24.84;100.00
37878;BME280;23715;53.652;8.516;2023-06-10T19:44:23;101852.46;;;24.87;100.00
37878;BME280;23715;53.652;8.516;2023-06-10T19:49:26;101860.94;;;24.75;100.00
37878;BME280;23715;53.652;8.516;2023-06-10T19:54:34;101861.77;;;24.58;100.00
37878;BME280;23715;53.652;8.516;2023-06-10T19:59:39;101870.83;;;24.52;100.00
37878;BME280;23715;53.652;8.516;2023-06-10T20:04:39;101879.39;;;24.31;100.00
37878;BME280;23715;53.652;8.516;2023-06-10T20:09:43;101895.50;;;24.13;100.00
37878;BME280;23715;53.652;8.516;2023-06-10T20:14:45;101897.20;;;23.67;100.00
37878;BME280;23715;53.652;8.516;2023-06-10T20:19:50;101908.12;;;23.71;100.00
37878;BME280;23715;53.652;8.516;2023-06-10T20:24:51;101910.65;;;23.62;100.00
37878;BME280;23715;53.652;8.516;2023-06-10T20:29:55;101917.12;;;23.39;100.00
37878;BME280;23715;53.652;8.516;2023-06-10T20:34:57;101916.02;;;23.18;100.00
37878;BME280;23715;53.652;8.516;2023-06-10T20:40:22;101928.48;;;23.06;100.00
37878;BME280;23715;53.652;8.516;2023-06-10T20:45:24;101931.48;;;23.15;100.00
37878;BME280;23715;53.652;8.516;2023-06-10T20:50:20;101934.20;;;22.81;100.00
37878;BME280;23715;53.652;8.516;2023-06-10T20:55:20;101943.83;;;22.96;100.00
37878;BME280;23715;53.652;8.516;2023-06-10T21:00:28;101943.48;;;22.80;100.00
37878;BME280;23715;53.652;8.516;2023-06-10T21:05:40;101960.55;;;22.49;100.00
37878;BME280;23715;53.652;8.516;2023-06-10T21:10:44;101958.74;;;22.60;100.00
37878;BME280;23715;53.652;8.516;2023-06-10T21:15:46;101955.11;;;22.45;100.00
37878;BME280;23715;53.652;8.516;2023-06-10T21:20:45;101955.14;;;22.40;100.00
37878;BME280;23715;53.652;8.516;2023-06-10T21:25:45;101956.59;;;22.24;100.00
37878;BME280;23715;53.652;8.516;2023-06-10T21:30:46;101962.17;;;22.08;100.00
37878;BME280;23715;53.652;8.516;2023-06-10T21:35:46;101967.04;;;21.97;100.00
37878;BME280;23715;53.652;8.516;2023-06-10T21:40:46;101962.05;;;22.01;100.00
37878;BME280;23715;53.652;8.516;2023-06-10T21:45:47;101961.81;;;21.79;100.00
37878;BME280;23715;53.652;8.516;2023-06-10T21:50:47;101964.80;;;21.66;100.00
37878;BME280;23715;53.652;8.516;2023-06-10T21:55:47;101960.34;;;21.69;100.00
37878;BME280;23715;53.652;8.516;2023-06-10T22:00:47;101968.45;;;21.45;100.00
37878;BME280;23715;53.652;8.516;2023-06-10T22:05:53;101971.55;;;21.47;100.00
37878;BME280;23715;53.652;8.516;2023-06-10T22:11:38;101969.66;;;21.47;100.00
37878;BME280;23715;53.652;8.516;2023-06-10T22:16:16;101971.72;;;21.37;100.00
37878;BME280;23715;53.652;8.516;2023-06-10T22:21:16;101978.28;;;21.15;100.00
37878;BME280;23715;53.652;8.516;2023-06-10T22:26:18;101973.34;;;20.94;100.00
37878;BME280;23715;53.652;8.516;2023-06-10T22:31:19;101972.64;;;21.09;100.00
37878;BME280;23715;53.652;8.516;2023-06-10T22:36:20;101973.70;;;20.95;100.00
37878;BME280;23715;53.652;8.516;2023-06-10T22:41:27;101970.98;;;20.87;100.00
37878;BME280;23715;53.652;8.516;2023-06-10T22:46:24;101979.02;;;20.68;100.00
37878;BME280;23715;53.652;8.516;2023-06-10T22:51:24;101988.55;;;20.43;100.00
37878;BME280;23715;53.652;8.516;2023-06-10T22:56:26;101977.47;;;20.65;100.00
37878;BME280;23715;53.652;8.516;2023-06-10T23:01:29;101981.36;;;20.46;100.00
37878;BME280;23715;53.652;8.516;2023-06-10T23:06:31;101982.72;;;20.42;100.00
37878;BME280;23715;53.652;8.516;2023-06-10T23:11:30;101995.13;;;20.16;100.00
37878;BME280;23715;53.652;8.516;2023-06-10T23:16:34;101990.23;;;20.28;100.00
37878;BME280;23715;53.652;8.516;2023-06-10T23:21:34;101990.88;;;20.18;100.00
37878;BME280;23715;53.652;8.516;2023-06-10T23:26:38;102005.84;;;20.01;100.00
37878;BME280;23715;53.652;8.516;2023-06-10T23:31:38;102007.02;;;19.91;100.00
37878;BME280;23715;53.652;8.516;2023-06-10T23:36:38;102004.44;;;19.85;100.00
37878;BME280;23715;53.652;8.516;2023-06-10T23:41:39;102009.02;;;19.80;100.00
37878;BME280;23715;53.652;8.516;2023-06-10T23:46:45;102005.01;;;19.66;100.00
37878;BME280;23715;53.652;8.516;2023-06-10T23:51:43;102010.09;;;19.61;100.00
37878;BME280;23715;53.652;8.516;2023-06-10T23:56:43;102011.73;;;19.50;100.00
